Kirkland, South Carolina
Current Conditions -  °F | °C
As of 1:55 AM on Wednesday 28 Jan 2015 (Local Time) from KCDN Reporting Station
Clear Clear  
Wind Chill: 30°   Ceiling: Unl
Heat Index: 34°   Visibility: 10mi
Dew Point: 21°   Wind: 5mph
Humidity: 60%   Direction: 330°NNW
Pressure: 30.06"   Gusts: NA
Location:  34.2974°N, 80.6089°W
Report Text: KCDN 280655Z AUTO 33004KT 10SM CLR 01/M06 A3006 RMK AO2 TSNO
Loading
Personal Weather Stations






























Interactive Weather Map New forecast layout! Learn more

10-Day Weather Forecast

Advertisements
Track Severe Weather on mobile